createdAt,value
2022-08-28T00:00:10.455Z,17.94
2022-08-28T00:02:37.696Z,17.87
2022-08-28T00:05:06.138Z,17.85
2022-08-28T00:07:32.744Z,17.81
2022-08-28T00:09:59.285Z,17.82
2022-08-28T00:12:26.678Z,17.82
2022-08-28T00:14:53.381Z,17.82
2022-08-28T00:17:19.906Z,17.78
2022-08-28T00:19:46.522Z,17.74
2022-08-28T00:22:13.089Z,17.73
2022-08-28T00:24:44.542Z,17.70
2022-08-28T00:27:29.754Z,17.65
2022-08-28T00:29:56.272Z,17.62
2022-08-28T00:32:25.232Z,17.60
2022-08-28T00:34:52.032Z,17.59
2022-08-28T00:37:18.764Z,17.56
2022-08-28T00:39:45.430Z,17.54
2022-08-28T00:42:12.353Z,17.50
2022-08-28T00:44:38.965Z,17.54
2022-08-28T00:47:05.628Z,17.57
2022-08-28T00:49:36.024Z,17.56
2022-08-28T00:52:08.663Z,17.52
2022-08-28T00:54:58.430Z,17.50
2022-08-28T00:57:36.231Z,17.49
2022-08-28T01:00:11.709Z,17.48
2022-08-28T01:02:38.324Z,17.43
2022-08-28T01:05:09.549Z,17.39
2022-08-28T01:07:37.295Z,17.37
2022-08-28T01:10:07.960Z,17.35
2022-08-28T01:12:35.781Z,17.31
2022-08-28T01:15:11.866Z,17.31
2022-08-28T01:17:44.357Z,17.28
2022-08-28T01:20:15.123Z,17.26
2022-08-28T01:22:54.052Z,17.29
2022-08-28T01:25:23.476Z,17.34
2022-08-28T01:27:51.202Z,17.36
2022-08-28T01:30:21.572Z,17.32
2022-08-28T01:32:51.854Z,17.25
2022-08-28T01:35:21.625Z,17.25
2022-08-28T01:37:49.218Z,17.28
2022-08-28T01:40:23.035Z,17.23
2022-08-28T01:42:50.332Z,17.19
2022-08-28T01:45:20.527Z,17.13
2022-08-28T01:47:47.802Z,17.07
2022-08-28T01:50:20.735Z,17.04
2022-08-28T01:52:47.274Z,16.99
2022-08-28T01:55:14.147Z,16.94
2022-08-28T01:57:49.726Z,16.92
2022-08-28T02:00:17.660Z,16.91
2022-08-28T02:02:44.285Z,16.87
2022-08-28T02:05:11.568Z,16.85
2022-08-28T02:07:38.304Z,16.80
2022-08-28T02:10:07.387Z,16.79
2022-08-28T02:12:34.082Z,16.72
2022-08-28T02:15:00.633Z,16.69
2022-08-28T02:17:27.193Z,16.64
2022-08-28T02:19:53.799Z,16.63
2022-08-28T02:22:20.341Z,16.61
2022-08-28T02:24:46.929Z,16.64
2022-08-28T02:27:13.609Z,16.65
2022-08-28T02:29:40.126Z,16.63
2022-08-28T02:32:06.976Z,16.63
2022-08-28T02:34:34.771Z,16.60
2022-08-28T02:37:01.568Z,16.56
2022-08-28T02:39:28.236Z,16.51
2022-08-28T02:41:54.788Z,16.44
2022-08-28T02:44:21.378Z,16.46
2022-08-28T02:46:47.965Z,16.47
2022-08-28T02:49:14.506Z,16.49
2022-08-28T02:51:41.032Z,16.48
2022-08-28T02:54:07.547Z,16.51
2022-08-28T02:56:34.418Z,16.52
2022-08-28T02:59:01.095Z,16.51
2022-08-28T03:01:27.694Z,16.55
2022-08-28T03:03:54.359Z,16.59
2022-08-28T03:06:21.022Z,16.61
2022-08-28T03:08:47.578Z,16.54
2022-08-28T03:11:14.137Z,16.49
2022-08-28T03:13:41.969Z,16.48
2022-08-28T03:16:08.717Z,16.49
2022-08-28T03:18:35.352Z,16.53
2022-08-28T03:21:02.434Z,16.55
2022-08-28T03:23:30.311Z,16.53
2022-08-28T03:26:03.588Z,16.47
2022-08-28T03:28:33.877Z,16.43
2022-08-28T03:31:01.265Z,16.39
2022-08-28T03:33:28.368Z,16.35
2022-08-28T03:35:55.651Z,16.33
2022-08-28T03:38:22.624Z,16.34
2022-08-28T03:40:52.373Z,16.34
2022-08-28T03:43:22.787Z,16.36
2022-08-28T03:45:58.172Z,16.31
2022-08-28T03:48:30.359Z,16.27
2022-08-28T03:50:57.939Z,16.24
2022-08-28T03:53:27.702Z,16.23
2022-08-28T03:55:55.789Z,16.24
2022-08-28T03:58:23.200Z,16.27
2022-08-28T04:00:51.126Z,16.23
2022-08-28T04:03:18.721Z,16.20
2022-08-28T04:05:46.649Z,16.20
2022-08-28T04:08:16.073Z,16.21
2022-08-28T04:10:46.452Z,16.22
2022-08-28T04:13:14.474Z,16.22
2022-08-28T04:15:41.698Z,16.22
2022-08-28T04:18:09.711Z,16.25
2022-08-28T04:20:36.702Z,16.32
2022-08-28T04:23:04.136Z,16.36
2022-08-28T04:25:31.848Z,16.38
2022-08-28T04:27:58.894Z,16.42
2022-08-28T04:30:25.478Z,16.45
2022-08-28T04:32:51.994Z,16.44
2022-08-28T04:35:18.548Z,16.49
2022-08-28T04:37:45.056Z,16.51
2022-08-28T04:40:13.242Z,16.56
2022-08-28T04:42:40.398Z,16.57
2022-08-28T04:45:07.791Z,16.59
2022-08-28T04:47:38.900Z,16.61
2022-08-28T04:50:07.443Z,16.64
2022-08-28T04:52:34.561Z,16.67
2022-08-28T04:55:01.654Z,16.67
2022-08-28T04:57:28.243Z,16.68
2022-08-28T04:59:54.950Z,16.68
2022-08-28T05:02:21.500Z,16.65
2022-08-28T05:04:49.176Z,16.64
2022-08-28T05:07:15.870Z,16.66
2022-08-28T05:09:42.492Z,16.63
2022-08-28T05:12:09.088Z,16.64
2022-08-28T05:14:36.661Z,16.66
2022-08-28T05:17:03.224Z,16.71
2022-08-28T05:19:29.746Z,16.72
2022-08-28T05:21:56.552Z,16.72
2022-08-28T05:24:23.294Z,16.76
2022-08-28T05:26:50.244Z,16.81
2022-08-28T05:29:17.063Z,16.84
2022-08-28T05:31:43.950Z,16.88
2022-08-28T05:34:10.852Z,16.92
2022-08-28T05:36:38.857Z,16.97
2022-08-28T05:39:08.902Z,17.00
2022-08-28T05:41:36.773Z,17.04
2022-08-28T05:44:07.270Z,17.09
2022-08-28T05:46:36.781Z,17.10
2022-08-28T05:49:07.721Z,17.10
2022-08-28T05:51:36.834Z,17.17
2022-08-28T05:54:04.118Z,17.20
2022-08-28T05:56:34.573Z,17.22
2022-08-28T05:59:03.553Z,17.26
2022-08-28T06:01:32.840Z,17.31
2022-08-28T06:04:03.539Z,17.39
2022-08-28T06:06:34.377Z,17.48
2022-08-28T06:09:04.763Z,17.55
2022-08-28T06:11:31.878Z,17.62
2022-08-28T06:14:01.891Z,17.72
2022-08-28T06:16:31.297Z,17.86
2022-08-28T06:18:58.494Z,17.98
2022-08-28T06:21:25.266Z,18.10
2022-08-28T06:23:51.980Z,18.16
2022-08-28T06:26:18.910Z,18.25
2022-08-28T06:28:45.573Z,18.41
2022-08-28T06:31:25.055Z,18.53
2022-08-28T06:33:54.441Z,18.69
2022-08-28T06:36:21.785Z,18.84
2022-08-28T06:38:48.310Z,18.93
2022-08-28T06:41:15.727Z,19.05
2022-08-28T06:43:42.876Z,19.15
2022-08-28T06:46:09.707Z,19.20
2022-08-28T06:48:39.348Z,19.24
2022-08-28T06:51:09.472Z,19.28
2022-08-28T06:53:37.336Z,19.35
2022-08-28T06:56:11.301Z,19.46
2022-08-28T06:58:43.048Z,19.61
2022-08-28T07:01:27.058Z,19.70
2022-08-28T07:03:55.789Z,19.74
2022-08-28T07:06:23.718Z,19.83
2022-08-28T07:08:51.372Z,19.95
2022-08-28T07:11:26.174Z,20.02
2022-08-28T07:13:53.989Z,20.10
2022-08-28T07:16:23.638Z,20.20
2022-08-28T07:18:51.763Z,20.29
2022-08-28T07:21:18.318Z,20.36
2022-08-28T07:23:46.391Z,20.49
2022-08-28T07:26:16.934Z,20.58
2022-08-28T07:28:45.417Z,20.76
2022-08-28T07:31:15.453Z,21.01
2022-08-28T07:33:43.645Z,21.31
2022-08-28T07:36:16.029Z,21.51
2022-08-28T07:38:56.419Z,21.54
2022-08-28T07:41:27.668Z,21.54
2022-08-28T07:44:13.036Z,21.59
2022-08-28T07:46:40.248Z,21.63
2022-08-28T07:49:07.692Z,21.65
2022-08-28T07:51:34.860Z,21.65
2022-08-28T07:54:03.216Z,21.63
2022-08-28T07:56:30.792Z,21.65
2022-08-28T07:58:58.715Z,21.62
2022-08-28T08:01:28.933Z,21.66
2022-08-28T08:04:01.733Z,21.65
2022-08-28T08:06:34.175Z,21.68
2022-08-28T08:09:02.018Z,21.67
2022-08-28T08:11:32.281Z,21.70
2022-08-28T08:14:05.622Z,21.72
2022-08-28T08:16:40.133Z,21.75
2022-08-28T08:19:10.040Z,21.75
2022-08-28T08:21:37.580Z,21.76
2022-08-28T08:24:04.599Z,21.74
2022-08-28T08:26:31.370Z,21.73
2022-08-28T08:28:59.042Z,21.72
2022-08-28T08:31:29.550Z,21.71
2022-08-28T08:33:58.144Z,21.71
2022-08-28T08:36:26.820Z,21.71
2022-08-28T08:38:59.297Z,21.68
2022-08-28T08:41:48.445Z,21.65
2022-08-28T08:44:28.018Z,21.61
2022-08-28T08:47:19.388Z,21.59
2022-08-28T08:49:57.240Z,21.45
2022-08-28T08:52:42.182Z,21.40
2022-08-28T08:55:34.246Z,21.22
2022-08-28T08:58:16.532Z,21.14
2022-08-28T09:01:20.817Z,20.97
2022-08-28T09:04:10.355Z,20.93
2022-08-28T09:06:50.470Z,20.90
2022-08-28T09:09:18.853Z,20.93
2022-08-28T09:11:57.038Z,20.97
2022-08-28T09:14:33.256Z,20.90
2022-08-28T09:17:00.958Z,20.87
2022-08-28T09:19:27.737Z,20.90
2022-08-28T09:21:54.652Z,20.89
2022-08-28T09:24:22.720Z,20.87
2022-08-28T09:26:56.436Z,20.87
2022-08-28T09:29:47.323Z,20.89
2022-08-28T09:32:33.570Z,20.85
2022-08-28T09:35:06.435Z,20.84
2022-08-28T09:37:35.331Z,20.80
2022-08-28T09:40:23.287Z,20.77
2022-08-28T09:43:28.868Z,20.77
2022-08-28T09:46:16.148Z,20.81
2022-08-28T09:48:45.453Z,20.77
2022-08-28T09:51:26.761Z,20.70
2022-08-28T09:53:56.480Z,20.69
2022-08-28T09:56:34.041Z,20.71
2022-08-28T09:59:06.521Z,20.75
2022-08-28T10:01:49.134Z,20.75
2022-08-28T10:04:15.937Z,20.75
2022-08-28T10:07:10.209Z,20.80
2022-08-28T10:10:06.669Z,20.79
2022-08-28T10:12:38.332Z,20.76
2022-08-28T10:15:04.945Z,20.70
2022-08-28T10:17:59.173Z,20.71
2022-08-28T10:20:45.902Z,20.69
2022-08-28T10:23:21.454Z,20.64
2022-08-28T10:25:58.695Z,20.65
2022-08-28T10:28:49.444Z,20.65
2022-08-28T10:31:57.825Z,20.68
2022-08-28T10:34:31.615Z,20.67
2022-08-28T10:37:40.006Z,20.63
2022-08-28T10:40:16.523Z,20.68
2022-08-28T10:42:48.550Z,20.77
2022-08-28T10:45:24.883Z,20.83
2022-08-28T10:47:57.727Z,20.90
2022-08-28T10:50:34.264Z,20.94
2022-08-28T10:53:07.230Z,20.97
2022-08-28T10:55:39.373Z,20.99
2022-08-28T10:58:24.381Z,21.00
2022-08-28T11:01:06.454Z,20.98
2022-08-28T11:03:40.833Z,20.97
2022-08-28T11:06:16.157Z,21.00
2022-08-28T11:08:52.937Z,21.04
2022-08-28T11:11:44.770Z,21.05
2022-08-28T11:14:25.391Z,21.08
2022-08-28T11:16:54.611Z,21.11
2022-08-28T11:19:43.993Z,21.14
2022-08-28T11:22:30.738Z,21.17
2022-08-28T11:25:12.832Z,21.14
2022-08-28T11:27:40.540Z,21.08
2022-08-28T11:30:10.942Z,21.10
2022-08-28T11:32:37.516Z,21.12
2022-08-28T11:35:10.688Z,21.06
2022-08-28T11:37:43.522Z,20.97
2022-08-28T11:40:17.385Z,20.96
2022-08-28T11:42:48.671Z,20.96
2022-08-28T11:46:01.095Z,20.95
2022-08-28T11:48:33.407Z,21.02
2022-08-28T11:51:18.215Z,21.05
2022-08-28T11:53:57.370Z,21.06
2022-08-28T11:56:48.506Z,21.08
2022-08-28T11:59:34.855Z,21.15
2022-08-28T12:02:33.271Z,21.19
2022-08-28T12:04:59.963Z,21.22
2022-08-28T12:07:35.013Z,21.24
2022-08-28T12:10:05.176Z,21.29
2022-08-28T12:12:47.220Z,21.36
2022-08-28T12:15:41.599Z,21.53
2022-08-28T12:18:11.191Z,21.63
2022-08-28T12:21:07.097Z,21.74
2022-08-28T12:23:37.175Z,21.86
2022-08-28T12:26:09.117Z,22.01
2022-08-28T12:28:49.204Z,22.04
2022-08-28T12:31:46.453Z,22.14
2022-08-28T12:34:50.223Z,22.26
2022-08-28T12:37:31.248Z,22.33
2022-08-28T12:40:20.603Z,22.39
2022-08-28T12:43:00.820Z,22.50
2022-08-28T12:45:42.632Z,22.67
2022-08-28T12:48:44.915Z,22.82
2022-08-28T12:51:22.305Z,22.93
2022-08-28T12:53:52.758Z,22.95
2022-08-28T12:56:21.892Z,23.01
2022-08-28T12:58:49.475Z,23.04
2022-08-28T13:01:30.887Z,23.10
2022-08-28T13:04:04.502Z,23.14
2022-08-28T13:06:36.425Z,23.20
2022-08-28T13:09:18.662Z,23.28
2022-08-28T13:11:49.259Z,23.34
2022-08-28T13:14:43.574Z,23.48
2022-08-28T13:17:12.719Z,23.60
2022-08-28T13:19:40.141Z,23.77
2022-08-28T13:22:28.480Z,23.90
2022-08-28T13:25:03.127Z,24.09
2022-08-28T13:27:30.048Z,24.25
2022-08-28T13:30:16.627Z,24.32
2022-08-28T13:32:55.946Z,24.41
2022-08-28T13:35:22.418Z,24.49
2022-08-28T13:37:54.815Z,24.51
2022-08-28T13:40:56.224Z,24.46
2022-08-28T13:43:18.197Z,24.50
2022-08-28T13:45:48.737Z,24.61
2022-08-28T13:48:19.307Z,24.71
2022-08-28T13:50:49.869Z,24.80
2022-08-28T13:53:19.606Z,24.94
2022-08-28T13:56:00.327Z,25.10
2022-08-28T13:58:28.233Z,25.24
2022-08-28T14:00:55.631Z,25.33
2022-08-28T14:03:38.128Z,25.40
2022-08-28T14:06:11.347Z,25.35
2022-08-28T14:08:39.850Z,25.31
2022-08-28T14:11:07.418Z,25.43
2022-08-28T14:13:34.525Z,25.53
2022-08-28T14:16:05.708Z,25.58
2022-08-28T14:18:32.331Z,25.63
2022-08-28T14:20:59.028Z,25.69
2022-08-28T14:23:25.583Z,25.70
2022-08-28T14:25:52.371Z,25.74
2022-08-28T14:28:19.086Z,25.77
2022-08-28T14:30:50.438Z,25.82
2022-08-28T14:33:20.852Z,25.87
2022-08-28T14:35:49.027Z,25.91
2022-08-28T14:38:16.776Z,25.93
2022-08-28T14:40:44.045Z,25.97
2022-08-28T14:43:13.546Z,26.01
2022-08-28T14:45:48.624Z,26.10
2022-08-28T14:48:18.260Z,26.17
2022-08-28T14:50:48.060Z,26.19
2022-08-28T14:53:15.875Z,26.20
2022-08-28T14:55:49.017Z,26.20
2022-08-28T14:58:17.379Z,26.20
2022-08-28T15:00:46.822Z,26.20
2022-08-28T15:03:14.573Z,26.22
2022-08-28T15:05:42.302Z,26.30
2022-08-28T15:08:10.956Z,26.38
2022-08-28T15:10:39.062Z,26.38
2022-08-28T15:13:07.710Z,26.41
2022-08-28T15:15:39.687Z,26.39
2022-08-28T15:18:07.543Z,26.38
2022-08-28T15:20:42.432Z,26.38
2022-08-28T15:23:09.064Z,26.30
2022-08-28T15:25:35.758Z,26.23
2022-08-28T15:28:02.558Z,26.20
2022-08-28T15:30:29.179Z,26.19
2022-08-28T15:32:55.821Z,26.17
2022-08-28T15:35:22.408Z,26.16
2022-08-28T15:37:49.061Z,26.16
2022-08-28T15:40:34.277Z,26.10
2022-08-28T15:43:00.928Z,26.06
2022-08-28T15:45:27.590Z,25.89
2022-08-28T15:47:54.487Z,25.66
2022-08-28T15:50:21.226Z,25.54
2022-08-28T15:52:48.069Z,25.57
2022-08-28T15:55:14.688Z,25.60
2022-08-28T15:57:41.332Z,25.60
2022-08-28T16:00:10.521Z,25.52
2022-08-28T16:02:37.607Z,25.41
2022-08-28T16:05:04.572Z,25.39
2022-08-28T16:07:31.093Z,25.36
2022-08-28T16:09:57.777Z,25.28
2022-08-28T16:12:25.519Z,25.21
2022-08-28T16:14:52.065Z,25.11
2022-08-28T16:17:19.032Z,24.80
2022-08-28T16:19:46.692Z,24.74
2022-08-28T16:22:16.015Z,24.77
2022-08-28T16:24:43.600Z,24.76
2022-08-28T16:27:14.647Z,24.73
2022-08-28T16:29:42.766Z,24.73
2022-08-28T16:32:09.622Z,24.66
2022-08-28T16:34:38.882Z,24.58
2022-08-28T16:37:06.162Z,24.56
2022-08-28T16:39:35.423Z,24.50
2022-08-28T16:42:02.359Z,24.40
2022-08-28T16:44:28.950Z,24.34
2022-08-28T16:46:55.983Z,24.29
2022-08-28T16:49:23.678Z,24.28
2022-08-28T16:51:50.565Z,24.28
2022-08-28T16:54:21.502Z,24.27
2022-08-28T16:56:48.086Z,24.26
2022-08-28T16:59:17.978Z,24.13
2022-08-28T17:01:44.809Z,24.06
2022-08-28T17:04:12.302Z,24.02
2022-08-28T17:06:40.054Z,23.99
2022-08-28T17:09:06.862Z,23.90
2022-08-28T17:11:33.425Z,23.81
2022-08-28T17:14:00.362Z,23.76
2022-08-28T17:16:31.462Z,23.65
2022-08-28T17:18:59.535Z,23.58
2022-08-28T17:21:44.508Z,23.50
2022-08-28T17:24:14.946Z,23.39
2022-08-28T17:26:42.594Z,23.24
2022-08-28T17:29:09.474Z,23.18
2022-08-28T17:31:36.790Z,23.15
2022-08-28T17:34:03.983Z,23.12
2022-08-28T17:36:33.070Z,23.09
2022-08-28T17:39:03.048Z,23.04
2022-08-28T17:41:29.738Z,22.93
2022-08-28T17:43:56.305Z,22.88
2022-08-28T17:46:22.897Z,22.81
2022-08-28T17:48:54.478Z,22.76
2022-08-28T17:51:42.685Z,22.70
2022-08-28T17:54:18.606Z,22.62
2022-08-28T17:56:46.391Z,22.55
2022-08-28T17:59:13.794Z,22.49
2022-08-28T18:01:42.064Z,22.45
2022-08-28T18:04:09.338Z,22.39
2022-08-28T18:06:36.088Z,22.33
2022-08-28T18:09:03.639Z,22.28
2022-08-28T18:11:30.418Z,22.24
2022-08-28T18:13:57.292Z,22.21
2022-08-28T18:16:27.646Z,22.19
2022-08-28T18:18:57.091Z,22.14
2022-08-28T18:21:23.679Z,22.08
2022-08-28T18:23:50.278Z,22.03
2022-08-28T18:26:17.624Z,21.95
2022-08-28T18:28:44.693Z,21.92
2022-08-28T18:31:11.257Z,21.76
2022-08-28T18:33:37.895Z,21.69
2022-08-28T18:36:07.883Z,21.67
2022-08-28T18:38:35.621Z,21.66
2022-08-28T18:41:04.533Z,21.67
2022-08-28T18:43:31.704Z,21.59
2022-08-28T18:45:59.605Z,21.57
2022-08-28T18:48:26.797Z,21.55
2022-08-28T18:50:53.458Z,21.54
2022-08-28T18:53:22.563Z,21.52
2022-08-28T18:55:52.190Z,21.49
2022-08-28T18:58:19.282Z,21.30
2022-08-28T19:00:45.908Z,21.17
2022-08-28T19:03:12.659Z,21.07
2022-08-28T19:05:40.144Z,21.08
2022-08-28T19:08:06.840Z,21.10
2022-08-28T19:10:35.296Z,21.01
2022-08-28T19:13:03.573Z,21.01
2022-08-28T19:15:30.649Z,21.02
2022-08-28T19:17:58.141Z,20.98
2022-08-28T19:20:26.518Z,20.95
2022-08-28T19:22:53.088Z,20.91
2022-08-28T19:25:28.571Z,20.88
2022-08-28T19:27:59.071Z,20.83
2022-08-28T19:30:27.313Z,20.79
2022-08-28T19:32:53.969Z,20.77
2022-08-28T19:35:24.298Z,20.76
2022-08-28T19:37:52.197Z,20.73
2022-08-28T19:40:20.588Z,20.71
2022-08-28T19:42:49.875Z,20.66
2022-08-28T19:45:17.819Z,20.61
2022-08-28T19:47:44.894Z,20.55
2022-08-28T19:50:13.997Z,20.53
2022-08-28T19:52:43.094Z,20.50
2022-08-28T19:55:14.318Z,20.43
2022-08-28T19:57:40.891Z,20.34
2022-08-28T20:00:08.313Z,20.28
2022-08-28T20:02:34.971Z,20.26
2022-08-28T20:05:01.648Z,20.22
2022-08-28T20:07:28.216Z,20.19
2022-08-28T20:09:54.808Z,20.14
2022-08-28T20:12:21.407Z,20.06
2022-08-28T20:14:48.040Z,19.98
2022-08-28T20:17:14.591Z,19.92
2022-08-28T20:19:41.413Z,19.87
2022-08-28T20:22:08.569Z,19.90
2022-08-28T20:24:35.389Z,19.91
2022-08-28T20:27:02.180Z,19.85
2022-08-28T20:29:29.265Z,19.80
2022-08-28T20:31:55.903Z,19.78
2022-08-28T20:34:23.262Z,19.72
2022-08-28T20:36:50.734Z,19.67
2022-08-28T20:39:18.080Z,19.67
2022-08-28T20:41:46.035Z,19.62
2022-08-28T20:44:15.490Z,19.56
2022-08-28T20:46:42.488Z,19.50
2022-08-28T20:49:10.697Z,19.51
2022-08-28T20:51:55.831Z,19.52
2022-08-28T20:54:26.440Z,19.46
2022-08-28T20:56:54.228Z,19.42
2022-08-28T20:59:21.640Z,19.37
2022-08-28T21:01:51.654Z,19.35
2022-08-28T21:04:18.733Z,19.28
2022-08-28T21:06:46.725Z,19.21
2022-08-28T21:09:17.516Z,19.16
2022-08-28T21:11:44.697Z,19.11
2022-08-28T21:14:11.441Z,19.09
2022-08-28T21:16:40.175Z,19.07
2022-08-28T21:19:15.800Z,19.06
2022-08-28T21:21:44.087Z,19.03
2022-08-28T21:24:12.640Z,19.04
2022-08-28T21:26:47.430Z,19.02
2022-08-28T21:29:15.131Z,19.03
2022-08-28T21:31:45.532Z,19.03
2022-08-28T21:34:12.525Z,19.02
2022-08-28T21:36:46.894Z,19.01
2022-08-28T21:39:17.097Z,18.97
2022-08-28T21:41:43.679Z,18.95
2022-08-28T21:44:10.237Z,18.93
2022-08-28T21:46:36.802Z,18.90
2022-08-28T21:49:04.033Z,18.91
2022-08-28T21:51:30.580Z,18.93
2022-08-28T21:53:57.269Z,18.94
2022-08-28T21:56:26.781Z,18.95
2022-08-28T21:58:55.630Z,18.95
2022-08-28T22:01:24.571Z,18.92
2022-08-28T22:03:51.140Z,18.84
2022-08-28T22:06:21.300Z,18.88
2022-08-28T22:08:48.690Z,18.91
2022-08-28T22:11:15.786Z,18.91
2022-08-28T22:13:48.233Z,18.90
2022-08-28T22:16:15.943Z,18.91
2022-08-28T22:18:42.787Z,18.94
2022-08-28T22:21:36.834Z,18.95
2022-08-28T22:24:04.527Z,18.96
2022-08-28T22:26:31.318Z,18.96
2022-08-28T22:28:58.359Z,19.00
2022-08-28T22:31:25.077Z,19.00
2022-08-28T22:33:52.549Z,19.01
2022-08-28T22:36:20.263Z,19.03
2022-08-28T22:38:53.052Z,19.04
2022-08-28T22:41:20.348Z,19.02
2022-08-28T22:43:51.161Z,19.04
2022-08-28T22:46:20.689Z,19.01
2022-08-28T22:48:48.065Z,18.97
2022-08-28T22:51:18.581Z,18.95
2022-08-28T22:53:45.857Z,18.97
2022-08-28T22:56:13.011Z,18.96
2022-08-28T22:58:40.175Z,18.96
2022-08-28T23:01:15.459Z,18.95
2022-08-28T23:03:42.319Z,18.93
2022-08-28T23:06:09.351Z,18.89
2022-08-28T23:08:35.945Z,18.83
2022-08-28T23:11:02.931Z,18.78
2022-08-28T23:13:30.697Z,18.75
2022-08-28T23:15:57.409Z,18.75
2022-08-28T23:18:24.179Z,18.76
2022-08-28T23:20:51.423Z,18.76
2022-08-28T23:23:19.208Z,18.75
2022-08-28T23:25:45.946Z,18.69
2022-08-28T23:28:12.909Z,18.62
2022-08-28T23:30:48.241Z,18.56
2022-08-28T23:33:23.544Z,18.49
2022-08-28T23:35:51.132Z,18.47
2022-08-28T23:38:17.845Z,18.46
2022-08-28T23:40:44.550Z,18.45
2022-08-28T23:43:12.021Z,18.46
2022-08-28T23:45:40.365Z,18.44
2022-08-28T23:48:07.942Z,18.43
2022-08-28T23:50:35.430Z,18.39
2022-08-28T23:53:04.299Z,18.35
2022-08-28T23:55:31.760Z,18.29
2022-08-28T23:58:00.485Z,18.26
